Cochran, Texas
Current Conditions -  °F | °C
As of 1:35 PM on Friday 31 Oct 2014 (Local Time) from K11R Reporting Station
Clear Clear  
Wind Chill: 76°   Ceiling: Unl
Heat Index: 77°   Visibility: 10mi
Dew Point: 40°   Wind: 14mph
Humidity: 27%   Direction: 360°N
Pressure: 30.23"   Gusts: 20mph
Location:  29.9944°N, 96.2595°W
Report Text: K11R 311835Z AUTO 36012G17KT 10SM CLR 25/04 A3023 RMK AO2 T02450043
Loading
Personal Weather Stations






























Interactive Weather Map
Tropical Storm Tracking
New forecast layout! Learn more

10-Day Weather Forecast

Advertisements
Track Severe Weather on mobile